AirNav   Everest Fuels
 
 1519 users online  

2W5 Maryland Airport
Indian Head, Maryland, USA

GOING TO INDIAN HEAD?


FAA INFORMATION EFFECTIVE 03 JANUARY 2019

Location

FAA Identifier: 2W5
Lat/Long: 38-35-49.3750N / 077-04-20.8500W
38-35.822917N / 077-04.347500W
38.5970486 / -77.0724583
(estimated)
Elevation: 175 ft. / 53 m (estimated)
Variation: 09W (1985)
From city: 4 miles E of INDIAN HEAD, MD
Time zone: UTC -5 (UTC -4 during Daylight Saving Time)
Zip code: 20646

Airport Operations

Airport use: Open to the public
Activation date: 09/1945
Control tower: no
ARTCC: WASHINGTON CENTER
FSS: LEESBURG FLIGHT SERVICE STATION
NOTAMs facility: DCA (NOTAM-D service available)
Attendance: 0800-1800
ARPT UNATNDD THANKSGIVING/CHRISTMAS/NEW YEARS DAY.
Pattern altitude: 1005 ft. MSL
Wind indicator: yes
Segmented circle: no
Lights: ACTIVATE REIL RY 02; MIRL RY 02/20 - CTAF.

Airport Communications

CTAF/UNICOM: 122.7
POTOMAC APPROACH: 124.7(DC SFRA) 118.95(DC SFRA)
POTOMAC DEPARTURE: 124.7(DC SFRA) 118.95(DC SFRA)
IRONS STAR: 126.4
TIKEE STAR: 120.45
WX ASOS at DCA (15 nm N): 132.65 (703-412-8140)

Nearby radio navigation aids

VOR radial/distance  VOR name  Freq  Var
DCAr195/15.8WASHINGTON VOR/DME111.0009W
ADWr227/15.9ANDREWS VORTAC113.1010W
OTTr257/16.7NOTTINGHAM VORTAC113.7010W
BRVr049/20.5BROOKE VORTAC114.5009W
AMLr146/27.4ARMEL VOR/DME113.5008W
PXTr310/36.6PATUXENT VORTAC117.6010W
CSNr100/37.3CASANOVA VORTAC116.3006W
BALr220/39.4BALTIMORE VORTAC115.1011W

 
NDB name  Hdg/Dist  Freq  Var  ID
DAVEE165/4.322309WDAA -.. .- .-
OXONN203/10.433211WDCA -.. -.-. .-
GEORGETOWN182/20.132309WGTN --. - -.
SHANNON052/26.623710WEZF . --.. ..-.
PATUXENT311/36.640010WNHK -. .... -.-

Airport Services

Fuel available: 100LL JET-A
Parking: tiedowns
Airframe service: MAJOR
Powerplant service: MAJOR
Bottled oxygen: NONE
Bulk oxygen: NONE

Runway Information

Runway 2/20

Dimensions: 3740 x 75 ft. / 1140 x 23 m
Surface: asphalt, in good condition
Runway edge lights: medium intensity
Gradient: N.
RUNWAY 2  RUNWAY 20
Latitude: 38-35.515833N38-36.130000N
Longitude: 077-04.379333W077-04.315667W
Elevation: 156.1 ft.175.0 ft.
Gradient: 0.4% UP0.9%
Traffic pattern: leftleft
Runway heading: 014 magnetic, 005 true194 magnetic, 185 true
Markings: nonprecision, in good conditionbasic, in good condition
Visual slope indicator: 4-light PAPI on left (3.00 degrees glide path)
ARPT DEACTIVATES PAPI WHEN WINDS FAVOR RWY 20.
Runway end identifier lights: yes
Touchdown point: yes, no lightsyes, no lights
Obstructions: 77 ft. trees, 2234 ft. from runway, 215 ft. left of centerline, 26:1 slope to clear88 ft. trees, 1778 ft. from runway, 313 ft. left of centerline, 17:1 slope to clear

Airport Ownership and Management from official FAA records

Ownership: Privately-owned
Owner: BAUSERMAN SERVICE, INC.
3900 LIVINGSTON RD, , C/O MS. TAMMY POTTER
INDIAN HEAD, MD 20640
Phone 301-283-6202
Manager: TAMMY POTTER
3900 LIVINGSTON RD
INDIAN HEAD, MD 20640
Phone 301-283-6202
OR 301-375-7606.

Airport Operational Statistics

Aircraft based on the field: 48
Single engine airplanes: 44
Multi engine airplanes: 2
Helicopters: 1
Gliders airplanes: 1
    
Aircraft operations: avg 47/day *
88% local general aviation
6% transient general aviation
6% military
<1% air taxi
* for 12-month period ending 12 September 2018

Additional Remarks

BIRDS & WILDLIFE ON & INVOF ARPT.
FOR CD CTC POTOMAC APCH AT 866-599-3874.

Instrument Procedures

NOTE: All procedures below are presented as PDF files. If you need a reader for these files, you should download the free Adobe Reader.

NOT FOR NAVIGATION. Please procure official charts for flight.
FAA instrument procedures published for use from 3 January 2019 at 0901Z to 31 January 2019 at 0900Z.

 
STARs - Standard Terminal Arrivals
TIKEE THREE (RNAV)   download (212KB)
 
IAPs - Instrument Approach Procedures
RNAV (GPS) RWY 02   download (166KB)
NOTE: Special Take-Off Minimums/Departure Procedures apply   download

Other nearby airports with instrument procedures:

KDAA - Davison Army Airfield (9 nm NW)
KVKX - Potomac Airfield (11 nm NE)
W32 - Washington Executive Airport/Hyde Field (11 nm NE)
KNYG - Quantico Marine Corps Airfield / Turner Field (12 nm SW)
KDCA - Ronald Reagan Washington National Airport (15 nm N)
KADW - Joint Base Andrews (16 nm NE)
 
Loc | Ops | Rwys | IFR | FBO | Links
Com | Nav | Svcs | Stats | Notes
Area around 2W5 (Maryland Airport)
 
Road maps at: MapQuest Bing Google
 
Aerial photo
WARNING: Photo may not be current or correct
Aerial photo of 2W5 (Maryland Airport)
Photo taken 24-Aug-2016
looking northwest.

Do you have a better or more recent aerial photo of Maryland Airport that you would like to share? If so, please send us your photo.

 
Sectional chart

 
Airport distance calculator
Flying to Maryland Airport? Find the distance to fly.

From to 2W5

Sunrise and sunset
Times for 21-Jan-2019
 Local
(UTC-5)
 Zulu
(UTC)
Morning civil twilight06:5411:54
Sunrise07:2312:23
Sunset17:1622:16
Evening civil twilight17:4522:45

Current date and time
Zulu (UTC)  21-Jan-2019 17:12:34
Local (UTC-5)  21-Jan-2019 12:12:34
 
METAR
KDAA 
8nm NW 
211656Z AUTO 30020G28KT 10SM CLR M07/M22 A3034 RMK AO2 PK WND 29034/33 SLP279 T10691220
KVKX 
11nm NE 
SuperAWOS
211635Z AUTO 32008KT 240V040 10SM M08/M19 A3033
KNYG 
11nm SW 
211656Z AUTO 33017G29KT 10SM CLR M06/M20 A3039 RMK AO2 PK WND 32035/1634 SLP290 T10611200
KDCA 
15nm N 
211652Z 31022G30KT 10SM CLR M07/M21 A3035 RMK AO2 PK WND 34032/1620 SLP275 T10671211
KADW 
16nm NE 
211656Z AUTO 31022G29KT 10SM CLR M08/M21 A3029 RMK AO2 PK WND 29033/13 SLP269 T10791211 $
TAF
KDCA 
15nm N 
211450Z 2115/2218 31024G40KT P6SM SKC FM212200 31016G25KT P6SM SKC FM220300 31009KT P6SM SKC FM221100 31005KT P6SM FEW150
KADW 
16nm NE 
211042Z 2110/2215 31025G35KT 9999 FEW140 510003 QNH3012INS TEMPO 2110/2113 31025G40KT 520003 BECMG 2112/2113 31025G35KT 9999 FEW140 510003 QNH3015INS BECMG 2202/2203 31015G25KT 9999 SKC 510044 QNH3038INS BECMG 2205/2206 30012G18KT 9999 SKC QNH3048INS TXM05/2120Z TNM10/2113Z
NOTAMs
Click for the latest NOTAMs
NOTAMs are issued by the DoD/FAA and will open in a separate window not controlled by AirNav.

 

 
 

FBO, Fuel Providers, and Aircraft Ground Support

  
 Business Name 
 
 Contact 
 
 Services / Description 
 
Fuel Prices
 
Comments
  
Bauserman Service 301-283-6202
301-375-7337
[email]
Aviation fuel, Aircraft parking (ramp or tiedown), Avionics sales and service, Aircraft modifications, Aircraft parts, Pilot supplies, Rental cars, ...

More info about Bauserman Service
Phillips 66
100LL Jet A
FS $4.95 $5.15 
 Updated 18-Jan-2019
 
   3 read write
FS=Full service
Update Fuel Prices
 

Would you like to see your business listed on this page?

 If your business provides an interesting product or service to pilots, flight crews, aircraft, or users of the Maryland Airport, you should consider listing it here.  To start the listing process, click on the button below
 
Add a business
 

Other Pages about Maryland Airport

marylandairport2w5.com
 
Update a link
 
Copyright © AirNav, LLC. All rights reserved. Privacy Policy  Contact